sensor_id;sensor_type;location;lat;lon;timestamp;pressure;altitude;pressure_sealevel;temperature;humidity
22653;BME280;11493;43.344;26.226;2023-02-12T00:02:16;100271.38;;;0.13;73.57
22653;BME280;11493;43.344;26.226;2023-02-12T00:04:44;100255.88;;;0.02;73.26
22653;BME280;11493;43.344;26.226;2023-02-12T00:07:13;100278.97;;;0.22;73.12
22653;BME280;11493;43.344;26.226;2023-02-12T00:09:40;100260.78;;;0.29;72.89
22653;BME280;11493;43.344;26.226;2023-02-12T00:12:07;100259.94;;;0.29;72.81
22653;BME280;11493;43.344;26.226;2023-02-12T00:14:36;100266.94;;;0.37;73.25
22653;BME280;11493;43.344;26.226;2023-02-12T00:17:03;100250.41;;;0.26;73.76
22653;BME280;11493;43.344;26.226;2023-02-12T00:19:30;100259.88;;;0.36;74.04
22653;BME280;11493;43.344;26.226;2023-02-12T00:21:57;100264.78;;;0.45;73.94
22653;BME280;11493;43.344;26.226;2023-02-12T00:24:24;100247.78;;;0.38;74.07
22653;BME280;11493;43.344;26.226;2023-02-12T00:26:52;100260.78;;;0.48;74.57
22653;BME280;11493;43.344;26.226;2023-02-12T00:29:19;100253.50;;;0.48;74.86
22653;BME280;11493;43.344;26.226;2023-02-12T00:31:46;100228.97;;;0.43;75.19
22653;BME280;11493;43.344;26.226;2023-02-12T00:34:13;100243.78;;;0.59;75.06
22653;BME280;11493;43.344;26.226;2023-02-12T00:36:40;100250.84;;;0.60;75.19
22653;BME280;11493;43.344;26.226;2023-02-12T00:39:09;100254.16;;;0.62;75.65
22653;BME280;11493;43.344;26.226;2023-02-12T00:41:36;100254.38;;;0.60;75.60
22653;BME280;11493;43.344;26.226;2023-02-12T00:44:03;100259.34;;;0.63;75.98
22653;BME280;11493;43.344;26.226;2023-02-12T00:46:33;100249.28;;;0.52;76.36
22653;BME280;11493;43.344;26.226;2023-02-12T00:49:00;100248.81;;;0.55;76.43
22653;BME280;11493;43.344;26.226;2023-02-12T00:51:27;100257.19;;;0.54;76.47
22653;BME280;11493;43.344;26.226;2023-02-12T00:53:54;100254.31;;;0.49;76.45
22653;BME280;11493;43.344;26.226;2023-02-12T00:56:21;100250.19;;;0.46;76.67
22653;BME280;11493;43.344;26.226;2023-02-12T00:58:48;100257.94;;;0.43;76.80
22653;BME280;11493;43.344;26.226;2023-02-12T01:01:15;100239.72;;;0.31;77.13
22653;BME280;11493;43.344;26.226;2023-02-12T01:03:42;100242.06;;;0.28;77.59
22653;BME280;11493;43.344;26.226;2023-02-12T01:06:09;100238.16;;;0.24;77.66
22653;BME280;11493;43.344;26.226;2023-02-12T01:08:36;100247.47;;;0.28;77.69
22653;BME280;11493;43.344;26.226;2023-02-12T01:11:04;100247.31;;;0.23;77.96
22653;BME280;11493;43.344;26.226;2023-02-12T01:13:32;100243.78;;;0.22;78.11
22653;BME280;11493;43.344;26.226;2023-02-12T01:16:07;100242.81;;;0.17;78.31
22653;BME280;11493;43.344;26.226;2023-02-12T01:18:37;100253.84;;;0.15;78.45
22653;BME280;11493;43.344;26.226;2023-02-12T01:21:09;100243.47;;;0.12;78.65
22653;BME280;11493;43.344;26.226;2023-02-12T01:23:36;100223.88;;;-0.02;78.85
22653;BME280;11493;43.344;26.226;2023-02-12T01:26:03;100232.13;;;0.04;79.06
22653;BME280;11493;43.344;26.226;2023-02-12T01:28:30;100244.97;;;0.08;78.91
22653;BME280;11493;43.344;26.226;2023-02-12T01:30:57;100239.63;;;0.02;78.93
22653;BME280;11493;43.344;26.226;2023-02-12T01:33:25;100231.22;;;-0.09;79.41
22653;BME280;11493;43.344;26.226;2023-02-12T01:35:53;100236.63;;;-0.09;79.93
22653;BME280;11493;43.344;26.226;2023-02-12T01:38:20;100228.75;;;-0.10;79.90
22653;BME280;11493;43.344;26.226;2023-02-12T01:40:47;100197.91;;;-0.27;80.06
22653;BME280;11493;43.344;26.226;2023-02-12T01:43:14;100209.25;;;-0.19;80.45
22653;BME280;11493;43.344;26.226;2023-02-12T01:45:49;100207.53;;;-0.13;80.31
22653;BME280;11493;43.344;26.226;2023-02-12T01:48:22;100195.44;;;-0.11;80.47
22653;BME280;11493;43.344;26.226;2023-02-12T01:50:50;100189.38;;;-0.06;80.23
22653;BME280;11493;43.344;26.226;2023-02-12T01:53:19;100201.00;;;0.13;78.95
22653;BME280;11493;43.344;26.226;2023-02-12T01:55:50;100195.00;;;0.29;78.25
22653;BME280;11493;43.344;26.226;2023-02-12T01:58:19;100187.63;;;0.36;77.82
22653;BME280;11493;43.344;26.226;2023-02-12T02:00:47;100186.78;;;0.36;78.14
22653;BME280;11493;43.344;26.226;2023-02-12T02:03:14;100186.94;;;0.41;77.66
22653;BME280;11493;43.344;26.226;2023-02-12T02:05:54;100205.22;;;0.45;78.38
22653;BME280;11493;43.344;26.226;2023-02-12T02:08:22;100195.13;;;0.52;77.51
22653;BME280;11493;43.344;26.226;2023-02-12T02:10:49;100196.41;;;0.50;77.98
22653;BME280;11493;43.344;26.226;2023-02-12T02:13:17;100192.19;;;0.54;77.84
22653;BME280;11493;43.344;26.226;2023-02-12T02:16:12;100189.09;;;0.50;77.10
22653;BME280;11493;43.344;26.226;2023-02-12T02:18:55;100182.63;;;0.51;77.83
22653;BME280;11493;43.344;26.226;2023-02-12T02:34:37;100194.94;;;0.65;77.40
22653;BME280;11493;43.344;26.226;2023-02-12T02:42:00;100203.59;;;0.74;78.12
22653;BME280;11493;43.344;26.226;2023-02-12T02:44:45;100201.00;;;0.79;78.17
22653;BME280;11493;43.344;26.226;2023-02-12T02:47:16;100193.91;;;0.67;78.74
22653;BME280;11493;43.344;26.226;2023-02-12T02:49:49;100178.41;;;0.55;78.94
22653;BME280;11493;43.344;26.226;2023-02-12T02:52:23;100214.50;;;0.68;79.24
22653;BME280;11493;43.344;26.226;2023-02-12T02:54:59;100214.53;;;0.79;78.82
22653;BME280;11493;43.344;26.226;2023-02-12T02:57:30;100211.22;;;0.77;79.05
22653;BME280;11493;43.344;26.226;2023-02-12T03:00:26;100202.16;;;0.72;79.05
22653;BME280;11493;43.344;26.226;2023-02-12T03:02:56;100191.44;;;0.77;79.18
22653;BME280;11493;43.344;26.226;2023-02-12T03:05:31;100164.28;;;0.53;79.04
22653;BME280;11493;43.344;26.226;2023-02-12T03:08:04;100201.81;;;0.80;79.12
22653;BME280;11493;43.344;26.226;2023-02-12T03:10:38;100193.16;;;0.59;79.42
22653;BME280;11493;43.344;26.226;2023-02-12T03:13:09;100210.75;;;0.69;79.72
22653;BME280;11493;43.344;26.226;2023-02-12T03:15:41;100212.28;;;0.76;79.71
22653;BME280;11493;43.344;26.226;2023-02-12T03:18:33;100209.34;;;0.78;79.84
22653;BME280;11493;43.344;26.226;2023-02-12T03:21:07;100213.94;;;0.77;79.98
22653;BME280;11493;43.344;26.226;2023-02-12T03:23:45;100215.81;;;0.77;79.92
22653;BME280;11493;43.344;26.226;2023-02-12T03:26:20;100215.22;;;0.75;80.29
22653;BME280;11493;43.344;26.226;2023-02-12T03:28:48;100206.03;;;0.76;80.34
22653;BME280;11493;43.344;26.226;2023-02-12T03:34:12;100227.16;;;0.85;80.09
22653;BME280;11493;43.344;26.226;2023-02-12T03:36:54;100232.13;;;0.88;80.03
22653;BME280;11493;43.344;26.226;2023-02-12T03:42:09;100234.59;;;0.90;79.55
22653;BME280;11493;43.344;26.226;2023-02-12T03:44:55;100234.59;;;0.90;79.10
22653;BME280;11493;43.344;26.226;2023-02-12T03:52:49;100240.31;;;1.00;78.56
22653;BME280;11493;43.344;26.226;2023-02-12T03:55:16;100225.78;;;0.94;78.58
22653;BME280;11493;43.344;26.226;2023-02-12T03:57:47;100245.50;;;1.02;78.63
22653;BME280;11493;43.344;26.226;2023-02-12T04:02:46;100241.97;;;1.01;78.46
22653;BME280;11493;43.344;26.226;2023-02-12T04:05:23;100240.44;;;1.05;78.54
22653;BME280;11493;43.344;26.226;2023-02-12T04:07:51;100252.09;;;1.06;78.23
22653;BME280;11493;43.344;26.226;2023-02-12T04:10:22;100240.66;;;1.04;78.25
22653;BME280;11493;43.344;26.226;2023-02-12T04:18:19;100238.56;;;1.06;78.23
22653;BME280;11493;43.344;26.226;2023-02-12T04:29:53;100262.16;;;1.17;77.72
22653;BME280;11493;43.344;26.226;2023-02-12T04:32:27;100262.84;;;1.12;77.85
22653;BME280;11493;43.344;26.226;2023-02-12T04:35:24;100273.09;;;1.10;78.11
22653;BME280;11493;43.344;26.226;2023-02-12T04:38:15;100277.31;;;1.06;78.08
22653;BME280;11493;43.344;26.226;2023-02-12T04:40:43;100268.59;;;1.04;78.48
22653;BME280;11493;43.344;26.226;2023-02-12T04:43:11;100270.72;;;1.02;78.58
22653;BME280;11493;43.344;26.226;2023-02-12T04:45:38;100282.06;;;1.11;78.46
22653;BME280;11493;43.344;26.226;2023-02-12T04:48:05;100280.03;;;1.06;78.63
22653;BME280;11493;43.344;26.226;2023-02-12T04:50:40;100281.38;;;1.15;78.64
22653;BME280;11493;43.344;26.226;2023-02-12T04:53:08;100281.56;;;1.02;78.68
22653;BME280;11493;43.344;26.226;2023-02-12T04:55:36;100291.63;;;1.13;78.66
22653;BME280;11493;43.344;26.226;2023-02-12T04:58:04;100300.19;;;1.10;78.64
22653;BME280;11493;43.344;26.226;2023-02-12T05:00:31;100303.97;;;1.09;79.08
22653;BME280;11493;43.344;26.226;2023-02-12T05:02:59;100308.94;;;1.12;78.79
22653;BME280;11493;43.344;26.226;2023-02-12T05:05:26;100315.09;;;1.19;78.66
22653;BME280;11493;43.344;26.226;2023-02-12T05:07:53;100311.34;;;1.02;78.82
22653;BME280;11493;43.344;26.226;2023-02-12T05:10:20;100322.66;;;0.99;79.45
22653;BME280;11493;43.344;26.226;2023-02-12T05:12:51;100295.19;;;0.77;79.64
22653;BME280;11493;43.344;26.226;2023-02-12T05:15:18;100328.38;;;0.91;79.89
22653;BME280;11493;43.344;26.226;2023-02-12T05:17:45;100331.25;;;0.96;80.05
22653;BME280;11493;43.344;26.226;2023-02-12T05:20:12;100322.06;;;0.97;80.34
22653;BME280;11493;43.344;26.226;2023-02-12T05:22:39;100323.72;;;0.98;80.28
22653;BME280;11493;43.344;26.226;2023-02-12T05:25:07;100301.66;;;0.94;80.14
22653;BME280;11493;43.344;26.226;2023-02-12T05:27:34;100326.09;;;1.06;79.97
22653;BME280;11493;43.344;26.226;2023-02-12T05:30:01;100335.28;;;1.05;79.10
22653;BME280;11493;43.344;26.226;2023-02-12T05:32:28;100334.91;;;1.02;79.30
22653;BME280;11493;43.344;26.226;2023-02-12T05:34:55;100344.94;;;1.01;79.34
22653;BME280;11493;43.344;26.226;2023-02-12T05:37:22;100345.69;;;1.08;79.19
22653;BME280;11493;43.344;26.226;2023-02-12T05:39:49;100339.06;;;1.04;78.94
22653;BME280;11493;43.344;26.226;2023-02-12T05:42:16;100360.28;;;1.07;79.22
22653;BME280;11493;43.344;26.226;2023-02-12T05:44:43;100358.31;;;1.14;78.97
22653;BME280;11493;43.344;26.226;2023-02-12T05:47:10;100370.97;;;1.20;78.79
22653;BME280;11493;43.344;26.226;2023-02-12T05:49:37;100360.66;;;1.11;79.00
22653;BME280;11493;43.344;26.226;2023-02-12T05:52:04;100362.22;;;1.18;78.90
22653;BME280;11493;43.344;26.226;2023-02-12T05:54:31;100379.25;;;1.25;78.74
22653;BME280;11493;43.344;26.226;2023-02-12T05:56:57;100383.94;;;1.18;78.78
22653;BME280;11493;43.344;26.226;2023-02-12T05:59:24;100372.41;;;1.23;78.67
22653;BME280;11493;43.344;26.226;2023-02-12T06:01:51;100380.00;;;1.33;78.59
22653;BME280;11493;43.344;26.226;2023-02-12T06:04:21;100380.44;;;1.29;78.65
22653;BME280;11493;43.344;26.226;2023-02-12T06:06:50;100394.75;;;1.37;78.78
22653;BME280;11493;43.344;26.226;2023-02-12T06:09:17;100403.63;;;1.44;78.80
22653;BME280;11493;43.344;26.226;2023-02-12T06:11:44;100393.38;;;1.46;78.63
22653;BME280;11493;43.344;26.226;2023-02-12T06:14:14;100406.13;;;1.57;78.63
22653;BME280;11493;43.344;26.226;2023-02-12T06:16:43;100402.28;;;1.64;78.63
22653;BME280;11493;43.344;26.226;2023-02-12T06:19:11;100402.03;;;1.66;78.41
22653;BME280;11493;43.344;26.226;2023-02-12T06:21:38;100408.06;;;1.68;78.77
22653;BME280;11493;43.344;26.226;2023-02-12T06:24:05;100407.69;;;1.64;78.92
22653;BME280;11493;43.344;26.226;2023-02-12T06:26:32;100413.34;;;1.63;78.88
22653;BME280;11493;43.344;26.226;2023-02-12T06:29:00;100421.91;;;1.78;78.84
22653;BME280;11493;43.344;26.226;2023-02-12T06:31:32;100420.63;;;1.81;78.63
22653;BME280;11493;43.344;26.226;2023-02-12T06:34:02;100425.34;;;1.85;78.74
22653;BME280;11493;43.344;26.226;2023-02-12T06:36:30;100429.25;;;1.89;78.68
22653;BME280;11493;43.344;26.226;2023-02-12T06:38:59;100431.66;;;1.97;78.42
22653;BME280;11493;43.344;26.226;2023-02-12T06:41:26;100419.88;;;2.04;78.27
22653;BME280;11493;43.344;26.226;2023-02-12T06:43:52;100422.34;;;2.05;78.30
22653;BME280;11493;43.344;26.226;2023-02-12T06:46:20;100430.28;;;2.18;78.08
22653;BME280;11493;43.344;26.226;2023-02-12T06:48:47;100436.19;;;2.27;77.65
22653;BME280;11493;43.344;26.226;2023-02-12T06:51:18;100408.81;;;2.17;76.92
22653;BME280;11493;43.344;26.226;2023-02-12T06:53:50;100425.09;;;2.28;76.53
22653;BME280;11493;43.344;26.226;2023-02-12T06:56:18;100433.38;;;2.45;76.05
22653;BME280;11493;43.344;26.226;2023-02-12T06:58:50;100432.31;;;2.46;75.82
22653;BME280;11493;43.344;26.226;2023-02-12T07:01:19;100439.19;;;2.49;75.73
22653;BME280;11493;43.344;26.226;2023-02-12T07:03:49;100441.66;;;2.50;75.74
22653;BME280;11493;43.344;26.226;2023-02-12T07:06:18;100421.81;;;2.50;75.22
22653;BME280;11493;43.344;26.226;2023-02-12T07:08:45;100431.84;;;2.49;75.14
22653;BME280;11493;43.344;26.226;2023-02-12T07:11:13;100456.06;;;2.51;75.34
22653;BME280;11493;43.344;26.226;2023-02-12T07:13:41;100447.09;;;2.50;75.72
22653;BME280;11493;43.344;26.226;2023-02-12T07:16:10;100456.81;;;2.70;75.34
22653;BME280;11493;43.344;26.226;2023-02-12T07:18:38;100461.66;;;2.79;75.33
22653;BME280;11493;43.344;26.226;2023-02-12T07:21:06;100450.31;;;2.94;74.62
22653;BME280;11493;43.344;26.226;2023-02-12T07:23:34;100456.06;;;3.09;74.42
22653;BME280;11493;43.344;26.226;2023-02-12T07:26:04;100462.31;;;3.21;73.69
22653;BME280;11493;43.344;26.226;2023-02-12T07:28:32;100461.34;;;3.39;73.20
22653;BME280;11493;43.344;26.226;2023-02-12T07:31:08;100459.91;;;3.37;71.96
22653;BME280;11493;43.344;26.226;2023-02-12T07:33:36;100453.28;;;3.44;71.90
22653;BME280;11493;43.344;26.226;2023-02-12T07:36:06;100451.84;;;3.53;71.75
22653;BME280;11493;43.344;26.226;2023-02-12T07:38:33;100458.44;;;3.57;71.29
22653;BME280;11493;43.344;26.226;2023-02-12T07:41:06;100452.78;;;3.59;71.39
22653;BME280;11493;43.344;26.226;2023-02-12T07:43:36;100453.03;;;3.46;71.27
22653;BME280;11493;43.344;26.226;2023-02-12T07:46:30;100466.00;;;3.67;71.29
22653;BME280;11493;43.344;26.226;2023-02-12T07:48:59;100457.66;;;3.74;71.18
22653;BME280;11493;43.344;26.226;2023-02-12T07:51:27;100452.22;;;3.74;71.27
22653;BME280;11493;43.344;26.226;2023-02-12T07:53:55;100451.25;;;3.80;71.15
22653;BME280;11493;43.344;26.226;2023-02-12T07:56:28;100450.75;;;3.66;70.99
22653;BME280;11493;43.344;26.226;2023-02-12T07:58:59;100461.66;;;3.83;70.33
22653;BME280;11493;43.344;26.226;2023-02-12T08:01:31;100473.72;;;3.87;70.66
22653;BME280;11493;43.344;26.226;2023-02-12T08:04:02;100468.47;;;3.97;70.65
22653;BME280;11493;43.344;26.226;2023-02-12T08:06:31;100466.50;;;4.09;70.28
22653;BME280;11493;43.344;26.226;2023-02-12T08:09:00;100471.81;;;4.16;70.28
22653;BME280;11493;43.344;26.226;2023-02-12T08:11:28;100465.34;;;4.05;70.08
22653;BME280;11493;43.344;26.226;2023-02-12T08:13:56;100477.66;;;4.08;69.75
22653;BME280;11493;43.344;26.226;2023-02-12T08:16:25;100484.66;;;4.04;70.42
22653;BME280;11493;43.344;26.226;2023-02-12T08:18:54;100494.19;;;3.89;70.08
22653;BME280;11493;43.344;26.226;2023-02-12T08:21:24;100498.03;;;4.05;69.64
22653;BME280;11493;43.344;26.226;2023-02-12T08:23:56;100497.25;;;4.21;69.74
22653;BME280;11493;43.344;26.226;2023-02-12T08:28:56;100500.38;;;4.13;69.62
22653;BME280;11493;43.344;26.226;2023-02-12T08:31:25;100500.59;;;4.12;69.78
22653;BME280;11493;43.344;26.226;2023-02-12T08:33:53;100482.38;;;4.12;69.84
22653;BME280;11493;43.344;26.226;2023-02-12T08:36:36;100509.13;;;4.15;69.38
22653;BME280;11493;43.344;26.226;2023-02-12T08:39:05;100513.75;;;4.15;69.53
22653;BME280;11493;43.344;26.226;2023-02-12T08:41:33;100514.56;;;4.15;69.49
22653;BME280;11493;43.344;26.226;2023-02-12T08:44:02;100509.25;;;4.09;69.25
22653;BME280;11493;43.344;26.226;2023-02-12T08:46:35;100535.50;;;3.86;69.59
22653;BME280;11493;43.344;26.226;2023-02-12T08:49:10;100536.91;;;3.89;70.01
22653;BME280;11493;43.344;26.226;2023-02-12T08:51:39;100531.91;;;3.69;70.28
22653;BME280;11493;43.344;26.226;2023-02-12T08:54:10;100541.91;;;3.80;70.93
22653;BME280;11493;43.344;26.226;2023-02-12T08:56:38;100534.16;;;4.01;70.47
22653;BME280;11493;43.344;26.226;2023-02-12T08:59:06;100528.03;;;3.93;70.62
22653;BME280;11493;43.344;26.226;2023-02-12T09:01:35;100529.25;;;4.14;70.22
22653;BME280;11493;43.344;26.226;2023-02-12T09:04:21;100540.50;;;4.18;69.50
22653;BME280;11493;43.344;26.226;2023-02-12T09:06:49;100539.44;;;4.19;70.40
22653;BME280;11493;43.344;26.226;2023-02-12T09:09:17;100546.72;;;4.02;69.91
22653;BME280;11493;43.344;26.226;2023-02-12T09:11:45;100550.50;;;4.01;70.10
22653;BME280;11493;43.344;26.226;2023-02-12T09:14:14;100540.50;;;4.18;69.44
22653;BME280;11493;43.344;26.226;2023-02-12T09:16:42;100549.53;;;4.35;69.67
22653;BME280;11493;43.344;26.226;2023-02-12T09:19:12;100550.19;;;4.25;69.58
22653;BME280;11493;43.344;26.226;2023-02-12T09:21:40;100544.16;;;4.23;69.36
22653;BME280;11493;43.344;26.226;2023-02-12T09:24:08;100551.50;;;4.23;69.50
22653;BME280;11493;43.344;26.226;2023-02-12T09:26:35;100555.56;;;4.37;69.59
22653;BME280;11493;43.344;26.226;2023-02-12T09:29:03;100556.91;;;4.35;68.90
22653;BME280;11493;43.344;26.226;2023-02-12T09:31:31;100559.38;;;4.36;69.12
22653;BME280;11493;43.344;26.226;2023-02-12T09:34:04;100572.03;;;4.59;68.74
22653;BME280;11493;43.344;26.226;2023-02-12T09:36:31;100577.66;;;4.69;68.57
22653;BME280;11493;43.344;26.226;2023-02-12T09:38:59;100567.31;;;4.54;68.42
22653;BME280;11493;43.344;26.226;2023-02-12T09:44:55;100577.78;;;4.46;68.75
22653;BME280;11493;43.344;26.226;2023-02-12T09:52:59;100582.84;;;4.54;67.98
22653;BME280;11493;43.344;26.226;2023-02-12T09:55:30;100596.31;;;4.44;68.42
22653;BME280;11493;43.344;26.226;2023-02-12T09:58:00;100588.78;;;4.51;68.77
22653;BME280;11493;43.344;26.226;2023-02-12T10:00:41;100588.00;;;4.67;68.94
22653;BME280;11493;43.344;26.226;2023-02-12T10:03:20;100577.34;;;4.66;68.41
22653;BME280;11493;43.344;26.226;2023-02-12T10:06:00;100583.41;;;4.84;68.66
22653;BME280;11493;43.344;26.226;2023-02-12T10:22:07;100583.53;;;5.45;66.87
22653;BME280;11493;43.344;26.226;2023-02-12T10:25:35;100577.41;;;5.38;66.54
22653;BME280;11493;43.344;26.226;2023-02-12T10:28:00;100551.66;;;5.12;66.64
22653;BME280;11493;43.344;26.226;2023-02-12T10:30:50;100581.72;;;5.34;66.67
22653;BME280;11493;43.344;26.226;2023-02-12T10:33:37;100593.47;;;5.34;65.43
22653;BME280;11493;43.344;26.226;2023-02-12T10:39:21;100588.94;;;5.78;65.44
22653;BME280;11493;43.344;26.226;2023-02-12T10:42:00;100596.13;;;6.06;63.87
22653;BME280;11493;43.344;26.226;2023-02-12T10:44:30;100609.53;;;6.08;62.50
22653;BME280;11493;43.344;26.226;2023-02-12T10:46:57;100594.81;;;6.09;62.71
22653;BME280;11493;43.344;26.226;2023-02-12T10:49:25;100601.47;;;6.40;62.04
22653;BME280;11493;43.344;26.226;2023-02-12T10:52:11;100603.22;;;6.51;61.46
22653;BME280;11493;43.344;26.226;2023-02-12T10:54:44;100596.31;;;6.43;61.84
22653;BME280;11493;43.344;26.226;2023-02-12T10:57:23;100613.16;;;6.57;61.54
22653;BME280;11493;43.344;26.226;2023-02-12T10:59:54;100602.41;;;6.50;60.90
22653;BME280;11493;43.344;26.226;2023-02-12T11:05:44;100605.97;;;6.51;61.52
22653;BME280;11493;43.344;26.226;2023-02-12T11:10:53;100604.66;;;6.32;60.96
22653;BME280;11493;43.344;26.226;2023-02-12T11:13:23;100621.38;;;6.35;60.76
22653;BME280;11493;43.344;26.226;2023-02-12T11:15:52;100599.38;;;6.25;61.16
22653;BME280;11493;43.344;26.226;2023-02-12T11:18:28;100617.75;;;6.30;61.39
22653;BME280;11493;43.344;26.226;2023-02-12T11:21:04;100611.13;;;6.25;62.25
22653;BME280;11493;43.344;26.226;2023-02-12T11:23:38;100607.00;;;6.23;62.13
22653;BME280;11493;43.344;26.226;2023-02-12T11:28:56;100611.66;;;6.22;62.05
22653;BME280;11493;43.344;26.226;2023-02-12T11:31:30;100606.41;;;5.99;62.28
22653;BME280;11493;43.344;26.226;2023-02-12T11:34:17;100624.78;;;6.04;62.63
22653;BME280;11493;43.344;26.226;2023-02-12T11:36:52;100613.44;;;5.90;64.08
22653;BME280;11493;43.344;26.226;2023-02-12T11:41:59;100618.81;;;6.07;64.26
22653;BME280;11493;43.344;26.226;2023-02-12T11:47:05;100615.13;;;6.18;64.80
22653;BME280;11493;43.344;26.226;2023-02-12T11:49:58;100604.13;;;6.35;63.72
22653;BME280;11493;43.344;26.226;2023-02-12T11:52:32;100611.19;;;6.52;62.91
22653;BME280;11493;43.344;26.226;2023-02-12T11:55:02;100625.53;;;6.65;63.57
22653;BME280;11493;43.344;26.226;2023-02-12T11:57:45;100607.47;;;6.64;63.60
22653;BME280;11493;43.344;26.226;2023-02-12T12:02:56;100619.44;;;6.57;63.47
22653;BME280;11493;43.344;26.226;2023-02-12T12:05:32;100621.84;;;6.54;63.46
22653;BME280;11493;43.344;26.226;2023-02-12T12:10:52;100618.94;;;6.61;63.31
22653;BME280;11493;43.344;26.226;2023-02-12T12:13:26;100627.63;;;6.57;63.55
22653;BME280;11493;43.344;26.226;2023-02-12T12:16:05;100627.66;;;6.36;63.36
22653;BME280;11493;43.344;26.226;2023-02-12T12:19:10;100632.38;;;6.40;63.39
22653;BME280;11493;43.344;26.226;2023-02-12T12:24:44;100637.31;;;6.43;62.59
22653;BME280;11493;43.344;26.226;2023-02-12T12:27:37;100637.56;;;6.20;62.51
22653;BME280;11493;43.344;26.226;2023-02-12T12:31:01;100637.81;;;6.18;63.00
22653;BME280;11493;43.344;26.226;2023-02-12T12:33:42;100622.63;;;6.06;62.70
22653;BME280;11493;43.344;26.226;2023-02-12T13:01:15;100657.56;;;5.48;67.38
22653;BME280;11493;43.344;26.226;2023-02-12T13:06:46;100670.06;;;5.44;65.11
22653;BME280;11493;43.344;26.226;2023-02-12T13:09:47;100662.59;;;5.56;65.19
22653;BME280;11493;43.344;26.226;2023-02-12T13:18:19;100683.38;;;5.57;63.73
22653;BME280;11493;43.344;26.226;2023-02-12T13:21:16;100673.63;;;5.45;63.83
22653;BME280;11493;43.344;26.226;2023-02-12T13:23:53;100690.25;;;5.60;64.13
22653;BME280;11493;43.344;26.226;2023-02-12T13:29:39;100704.97;;;5.59;62.91
22653;BME280;11493;43.344;26.226;2023-02-12T13:34:42;100691.66;;;5.46;62.81
22653;BME280;11493;43.344;26.226;2023-02-12T13:40:00;100719.69;;;5.58;63.81
22653;BME280;11493;43.344;26.226;2023-02-12T13:45:12;100735.41;;;5.51;64.01
22653;BME280;11493;43.344;26.226;2023-02-12T13:48:28;100739.31;;;5.55;64.19
22653;BME280;11493;43.344;26.226;2023-02-12T13:50:52;100741.84;;;5.45;64.31
22653;BME280;11493;43.344;26.226;2023-02-12T13:58:58;100732.41;;;5.19;64.13
22653;BME280;11493;43.344;26.226;2023-02-12T14:01:41;100743.34;;;5.19;64.03
22653;BME280;11493;43.344;26.226;2023-02-12T14:07:12;100744.22;;;5.24;64.23
22653;BME280;11493;43.344;26.226;2023-02-12T14:12:35;100749.03;;;5.17;64.23
22653;BME280;11493;43.344;26.226;2023-02-12T14:25:04;100685.59;;;4.53;65.09
22653;BME280;11493;43.344;26.226;2023-02-12T14:27:49;100784.78;;;5.04;65.78
22653;BME280;11493;43.344;26.226;2023-02-12T14:33:21;100791.22;;;4.98;66.46
22653;BME280;11493;43.344;26.226;2023-02-12T14:36:12;100789.44;;;4.92;66.84
22653;BME280;11493;43.344;26.226;2023-02-12T14:41:23;100800.25;;;4.87;67.77
22653;BME280;11493;43.344;26.226;2023-02-12T14:46:51;100813.41;;;4.90;68.10
22653;BME280;11493;43.344;26.226;2023-02-12T14:49:33;100808.44;;;4.87;68.76
22653;BME280;11493;43.344;26.226;2023-02-12T14:54:52;100799.56;;;4.80;69.06
22653;BME280;11493;43.344;26.226;2023-02-12T14:57:33;100805.38;;;4.83;69.59
22653;BME280;11493;43.344;26.226;2023-02-12T15:05:44;100813.69;;;4.65;70.41
22653;BME280;11493;43.344;26.226;2023-02-12T15:14:19;100766.00;;;4.27;70.86
22653;BME280;11493;43.344;26.226;2023-02-12T15:16:54;100830.19;;;4.58;71.17
22653;BME280;11493;43.344;26.226;2023-02-12T15:19:54;100832.31;;;4.56;71.02
22653;BME280;11493;43.344;26.226;2023-02-12T15:25:25;100850.56;;;4.56;71.54
22653;BME280;11493;43.344;26.226;2023-02-12T15:27:58;100841.34;;;4.45;72.14
22653;BME280;11493;43.344;26.226;2023-02-12T15:30:33;100843.25;;;4.33;72.61
22653;BME280;11493;43.344;26.226;2023-02-12T15:33:03;100850.34;;;4.34;73.09
22653;BME280;11493;43.344;26.226;2023-02-12T15:35:33;100859.47;;;4.28;73.43
22653;BME280;11493;43.344;26.226;2023-02-12T15:38:02;100862.31;;;4.21;73.98
22653;BME280;11493;43.344;26.226;2023-02-12T15:40:30;100872.84;;;4.18;74.98
22653;BME280;11493;43.344;26.226;2023-02-12T15:43:03;100879.84;;;4.14;75.47
22653;BME280;11493;43.344;26.226;2023-02-12T15:45:35;100886.13;;;4.14;75.71
22653;BME280;11493;43.344;26.226;2023-02-12T15:51:01;100898.31;;;4.12;76.26
22653;BME280;11493;43.344;26.226;2023-02-12T15:53:32;100908.25;;;4.06;76.64
22653;BME280;11493;43.344;26.226;2023-02-12T15:55:59;100888.91;;;3.96;77.22
22653;BME280;11493;43.344;26.226;2023-02-12T16:01:02;100928.84;;;4.02;77.56
22653;BME280;11493;43.344;26.226;2023-02-12T16:03:30;100928.47;;;3.99;77.88
22653;BME280;11493;43.344;26.226;2023-02-12T16:06:07;100915.09;;;3.97;77.85
22653;BME280;11493;43.344;26.226;2023-02-12T16:08:44;100944.81;;;3.99;78.28
22653;BME280;11493;43.344;26.226;2023-02-12T16:11:15;100922.06;;;3.93;78.08
22653;BME280;11493;43.344;26.226;2023-02-12T16:13:52;100937.56;;;3.92;78.21
22653;BME280;11493;43.344;26.226;2023-02-12T16:16:43;100946.19;;;3.89;78.41
22653;BME280;11493;43.344;26.226;2023-02-12T16:19:31;100944.53;;;3.88;78.54
22653;BME280;11493;43.344;26.226;2023-02-12T16:22:05;100943.34;;;3.84;78.50
22653;BME280;11493;43.344;26.226;2023-02-12T16:24:39;100954.59;;;3.88;78.54
22653;BME280;11493;43.344;26.226;2023-02-12T16:29:46;100967.94;;;3.78;78.62
22653;BME280;11493;43.344;26.226;2023-02-12T16:32:29;100986.91;;;3.84;78.64
22653;BME280;11493;43.344;26.226;2023-02-12T16:48:22;101013.50;;;3.71;79.68